Time;durP1;ratioP1;P1;durP2;ratioP2;P2;SDS_P1;SDS_P2;PMS_P1;PMS_P2;Temp;Humidity;BMP_temperature;BMP_pressure;BME280_temperature;BME280_humidity;BME280_pressure;Samples;Min_cycle;Max_cycle;Signal;HPM_P1;HPM_P2
2021/04/27 17:16:59;;;;;;;12.25;5.22;;;27.00;34.30;;;;;;5071312;28;20309;-71
2021/04/27 17:19:25;;;;;;;9.95;6.22;;;26.10;33.50;;;;;;5036040;28;20030;-71
2021/04/27 17:21:51;;;;;;;10.10;5.50;;;25.90;33.70;;;;;;5032514;28;20501;-72
2021/04/27 17:24:16;;;;;;;7.97;5.70;;;25.80;33.80;;;;;;5035607;28;20037;-73
2021/04/27 17:26:42;;;;;;;9.55;5.63;;;25.60;33.50;;;;;;5035615;28;20021;-72
2021/04/27 17:29:08;;;;;;;7.95;5.22;;;25.40;34.00;;;;;;5033845;28;20029;-72
2021/04/27 17:31:34;;;;;;;8.95;5.85;;;25.50;34.20;;;;;;5034740;28;20018;-73
2021/04/27 17:34:01;;;;;;;9.27;5.40;;;25.30;34.10;;;;;;5034878;28;20118;-72
2021/04/27 17:36:31;;;;;;;8.43;5.30;;;24.90;34.80;;;;;;5033835;28;20564;-72
2021/04/27 17:38:58;;;;;;;10.20;5.80;;;24.80;34.70;;;;;;5027381;28;20393;-73
2021/04/27 17:41:23;;;;;;;8.45;5.50;;;24.70;35.10;;;;;;5040673;28;20045;-71
2021/04/27 17:43:49;;;;;;;7.93;5.53;;;24.40;35.00;;;;;;5042517;28;20060;-71
2021/04/27 17:46:15;;;;;;;7.20;5.40;;;24.20;35.30;;;;;;5043850;28;20037;-73
2021/04/27 17:48:41;;;;;;;9.98;7.18;;;23.90;35.90;;;;;;5035607;28;20108;-71
2021/04/27 17:51:08;;;;;;;8.32;5.68;;;23.50;35.90;;;;;;5032782;28;20030;-72
2021/04/27 17:53:33;;;;;;;12.15;5.85;;;23.30;36.40;;;;;;5032582;28;20068;-72
2021/04/27 17:55:59;;;;;;;8.65;5.30;;;22.90;36.70;;;;;;5036222;28;20059;-71
2021/04/27 17:58:24;;;;;;;9.02;5.35;;;22.70;37.00;;;;;;5032523;28;20026;-72
2021/04/27 18:00:50;;;;;;;10.02;5.80;;;22.30;37.40;;;;;;5032780;28;20124;-72
2021/04/27 18:03:16;;;;;;;7.13;4.95;;;22.00;38.20;;;;;;5042735;28;20060;-72
2021/04/27 18:05:42;;;;;;;8.07;5.05;;;21.50;38.60;;;;;;5044386;28;20037;-71
2021/04/27 18:08:09;;;;;;;8.68;5.28;;;21.00;39.20;;;;;;5044351;28;20037;-71
2021/04/27 18:10:35;;;;;;;10.10;5.70;;;20.50;39.80;;;;;;5038431;28;20025;-71
2021/04/27 18:13:01;;;;;;;7.57;5.13;;;20.00;41.20;;;;;;5022636;28;20413;-70
2021/04/27 18:15:27;;;;;;;10.70;5.53;;;19.40;41.70;;;;;;5024574;28;20038;-70
2021/04/27 18:17:54;;;;;;;11.30;5.57;;;18.70;43.30;;;;;;5037807;28;20029;-70
2021/04/27 18:20:22;;;;;;;11.80;5.13;;;18.30;44.10;;;;;;5043272;28;20022;-71
2021/04/27 18:22:49;;;;;;;7.57;4.80;;;17.80;45.30;;;;;;5044420;28;20042;-70
2021/04/27 18:25:16;;;;;;;7.30;4.95;;;17.50;45.80;;;;;;5043115;28;20037;-70
2021/04/27 18:27:43;;;;;;;7.97;4.95;;;17.20;46.20;;;;;;5028930;28;20068;-70
2021/04/27 18:30:12;;;;;;;8.75;5.43;;;16.90;46.60;;;;;;5026225;28;20432;-70
2021/04/27 18:32:38;;;;;;;8.32;5.53;;;16.60;45.90;;;;;;5026646;28;20025;-72
2021/04/27 18:35:05;;;;;;;9.70;5.47;;;16.40;47.70;;;;;;5026724;28;20033;-72
2021/04/27 18:37:31;;;;;;;12.02;4.97;;;16.20;48.10;;;;;;5025147;28;20586;-71
2021/04/27 18:39:57;;;;;;;11.18;5.80;;;16.60;49.00;;;;;;5021868;28;20114;-72
2021/04/27 18:42:23;;;;;;;11.73;5.22;;;16.80;49.40;;;;;;5007144;28;20108;-69
2021/04/27 18:44:48;;;;;;;9.77;6.30;;;15.70;49.10;;;;;;5007569;28;20048;-70
2021/04/27 18:47:15;;;;;;;10.63;6.00;;;16.30;50.20;;;;;;5007389;28;20494;-72
2021/04/27 18:49:42;;;;;;;12.30;5.35;;;13.40;49.20;;;;;;5006967;28;20056;-73
2021/04/27 18:52:09;;;;;;;8.88;5.40;;;15.20;50.60;;;;;;5007398;28;20336;-70
2021/04/27 18:54:37;;;;;;;9.25;5.03;;;15.20;51.00;;;;;;5006728;28;20014;-70
2021/04/27 18:57:03;;;;;;;12.52;5.78;;;14.90;51.60;;;;;;5007986;28;20033;-72
2021/04/27 18:59:29;;;;;;;12.50;7.15;;;14.60;52.20;;;;;;5005474;28;20034;-71
2021/04/27 19:01:55;;;;;;;13.35;5.72;;;15.40;52.90;;;;;;5006618;28;20028;-71
2021/04/27 19:04:22;;;;;;;8.43;5.20;;;14.40;52.80;;;;;;5007356;28;20096;-71
2021/04/27 19:06:49;;;;;;;11.35;5.35;;;14.00;53.60;;;;;;5007012;28;20042;-71
2021/04/27 19:09:15;;;;;;;17.13;6.45;;;13.90;53.00;;;;;;5022968;28;20034;-71
2021/04/27 19:11:41;;;;;;;8.30;4.00;;;13.70;55.10;;;;;;5026754;28;20090;-71
2021/04/27 19:14:10;;;;;;;10.95;4.00;;;13.60;58.40;;;;;;5025476;28;20025;-71
2021/04/27 19:16:37;;;;;;;14.30;3.65;;;13.30;58.10;;;;;;5026229;28;20035;-71
2021/04/27 19:19:04;;;;;;;6.28;3.65;;;13.30;60.10;;;;;;5026720;28;20033;-71
2021/04/27 19:21:30;;;;;;;13.63;3.58;;;12.90;62.10;;;;;;5025816;28;20032;-71
2021/04/27 19:23:56;;;;;;;7.25;3.60;;;12.70;61.90;;;;;;5025028;28;20031;-70
2021/04/27 19:26:22;;;;;;;8.15;3.97;;;12.80;62.80;;;;;;5027088;28;20029;-71
2021/04/27 19:28:47;;;;;;;8.80;4.32;;;12.30;62.60;;;;;;5030738;28;20429;-70
2021/04/27 19:31:14;;;;;;;7.60;4.22;;;12.20;62.90;;;;;;5028530;28;20462;-70
2021/04/27 19:33:40;;;;;;;5.50;3.30;;;12.00;64.30;;;;;;5030543;28;20045;-70
2021/04/27 19:36:07;;;;;;;10.40;4.10;;;11.90;66.60;;;;;;5029044;28;20064;-70
2021/04/27 19:38:33;;;;;;;5.68;3.70;;;11.80;67.40;;;;;;5029431;28;20037;-70
2021/04/27 19:41:00;;;;;;;8.75;4.13;;;11.80;67.50;;;;;;5029212;28;20033;-69
2021/04/27 19:43:26;;;;;;;6.75;4.38;;;11.60;67.00;;;;;;5030425;28;20025;-70
2021/04/27 19:45:53;;;;;;;6.80;4.20;;;11.40;67.80;;;;;;5028924;28;20462;-70
2021/04/27 19:48:20;;;;;;;7.70;4.10;;;11.50;68.30;;;;;;5030095;28;20034;-70
2021/04/27 19:50:46;;;;;;;11.38;4.65;;;11.20;68.00;;;;;;5027882;28;20041;-70
2021/04/27 19:53:12;;;;;;;8.15;4.65;;;11.40;69.30;;;;;;5030120;28;20430;-70
2021/04/27 19:55:44;;;;;;;9.65;5.43;;;10.90;69.10;;;;;;5030026;28;20036;-70
2021/04/27 19:58:13;;;;;;;7.90;4.28;;;11.10;69.30;;;;;;5028946;28;20030;-71
2021/04/27 20:00:41;;;;;;;8.85;5.13;;;11.00;68.40;;;;;;5017776;28;20138;-70
2021/04/27 20:03:07;;;;;;;9.85;5.43;;;11.00;70.60;;;;;;5018792;28;20128;-69
2021/04/27 20:05:35;;;;;;;7.50;4.45;;;11.00;72.10;;;;;;5020691;28;20493;-69
2021/04/27 20:08:01;;;;;;;8.98;4.78;;;10.90;72.60;;;;;;5018889;28;20544;-69
2021/04/27 20:10:27;;;;;;;9.98;5.35;;;10.80;75.00;;;;;;5018366;28;20060;-69
2021/04/27 20:12:54;;;;;;;10.00;4.57;;;10.70;74.70;;;;;;5020603;28;20672;-71
2021/04/27 20:15:21;;;;;;;7.82;4.88;;;10.60;78.10;;;;;;5018590;28;20076;-70
2021/04/27 20:17:49;;;;;;;11.57;5.28;;;10.80;78.70;;;;;;5019170;28;20018;-71
2021/04/27 20:20:15;;;;;;;8.02;4.78;;;10.50;78.80;;;;;;5017823;28;20021;-71
2021/04/27 20:22:41;;;;;;;10.88;5.00;;;10.70;81.90;;;;;;5016584;28;20025;-71
2021/04/27 20:25:09;;;;;;;6.93;5.20;;;10.30;84.10;;;;;;5020480;28;20098;-70
2021/04/27 20:27:35;;;;;;;7.25;4.38;;;10.10;86.00;;;;;;5018577;28;20394;-70
2021/04/27 20:30:04;;;;;;;9.30;5.90;;;9.90;88.90;;;;;;5018149;28;20041;-70
2021/04/27 20:32:30;;;;;;;14.68;5.47;;;9.80;90.30;;;;;;5017489;28;20074;-70
2021/04/27 20:34:56;;;;;;;9.27;4.85;;;10.20;92.10;;;;;;5019487;28;20788;-71
2021/04/27 20:37:21;;;;;;;7.70;5.40;;;9.80;92.20;;;;;;5018380;28;20022;-70
2021/04/27 20:39:49;;;;;;;8.30;4.40;;;10.80;93.60;;;;;;5017998;28;20155;-70
2021/04/27 20:42:15;;;;;;;11.20;5.70;;;10.10;94.40;;;;;;5019101;28;20013;-70
2021/04/27 20:44:40;;;;;;;9.30;5.40;;;9.40;94.70;;;;;;5018251;28;20569;-70
2021/04/27 20:47:06;;;;;;;8.40;4.57;;;9.40;96.10;;;;;;5018992;28;20098;-70
2021/04/27 20:49:34;;;;;;;9.05;4.85;;;9.40;96.90;;;;;;5018134;28;20118;-70
2021/04/27 20:51:59;;;;;;;8.45;4.60;;;9.20;98.70;;;;;;5018091;28;20041;-70
2021/04/27 20:54:25;;;;;;;9.30;5.35;;;9.20;99.10;;;;;;5019391;28;20497;-70
2021/04/27 20:56:50;;;;;;;8.98;4.57;;;9.30;99.90;;;;;;5019644;28;20040;-71
2021/04/27 20:59:16;;;;;;;9.45;5.00;;;10.20;99.90;;;;;;5018458;28;20033;-70
2021/04/27 21:01:42;;;;;;;8.75;4.72;;;9.50;99.90;;;;;;5020640;28;20057;-71
2021/04/27 21:04:07;;;;;;;9.43;5.10;;;8.70;99.90;;;;;;5026543;28;20499;-70
2021/04/27 21:06:33;;;;;;;10.68;5.65;;;8.70;99.90;;;;;;5030242;28;20377;-70
2021/04/27 21:08:58;;;;;;;9.32;5.78;;;9.70;99.90;;;;;;5031444;28;20029;-71
2021/04/27 21:11:24;;;;;;;10.38;5.45;;;9.30;99.90;;;;;;5028325;28;20497;-71
2021/04/27 21:13:50;;;;;;;7.82;4.65;;;8.90;99.90;;;;;;5027971;28;20034;-70
2021/04/27 21:16:15;;;;;;;11.23;4.65;;;8.60;99.90;;;;;;5028859;28;20037;-71
2021/04/27 21:18:41;;;;;;;11.30;4.82;;;8.40;99.90;;;;;;5028260;28;20038;-69
2021/04/27 21:21:06;;;;;;;12.77;6.18;;;9.40;99.90;;;;;;5027603;28;20034;-69
2021/04/27 21:23:32;;;;;;;13.45;5.57;;;8.90;99.90;;;;;;5028553;28;20409;-69
2021/04/27 21:25:58;;;;;;;7.68;4.55;;;8.20;99.90;;;;;;5028662;28;20033;-70
2021/04/27 21:28:24;;;;;;;8.25;4.70;;;8.20;99.90;;;;;;5028035;28;20026;-70
2021/04/27 21:30:51;;;;;;;10.98;5.30;;;8.10;99.90;;;;;;5035601;23;20306;-72
2021/04/27 21:33:16;;;;;;;8.10;5.30;;;9.00;99.90;;;;;;5027275;28;20079;-73
2021/04/27 21:35:42;;;;;;;10.73;4.55;;;9.10;99.90;;;;;;5028449;28;20045;-72
2021/04/27 21:38:07;;;;;;;11.30;4.88;;;8.20;99.90;;;;;;5028553;28;20401;-73
2021/04/27 21:40:33;;;;;;;12.32;5.03;;;8.60;99.90;;;;;;5027574;28;20109;-73
2021/04/27 21:42:59;;;;;;;9.40;4.75;;;7.90;99.90;;;;;;5027596;28;20022;-74
2021/04/27 21:45:28;;;;;;;10.02;5.30;;;9.60;99.90;;;;;;5028331;28;20116;-74
2021/04/27 21:47:54;;;;;;;8.70;5.20;;;7.80;99.90;;;;;;5027391;28;20041;-74
2021/04/27 21:50:20;;;;;;;7.45;4.53;;;9.00;99.90;;;;;;5027242;28;20083;-74
2021/04/27 21:52:46;;;;;;;9.05;5.00;;;7.80;99.90;;;;;;5028587;28;20498;-73
2021/04/27 21:55:13;;;;;;;10.13;5.03;;;7.80;99.90;;;;;;5028275;28;20091;-74
2021/04/27 21:57:39;;;;;;;9.63;4.53;;;7.40;99.90;;;;;;5028621;28;20056;-73
2021/04/27 22:00:30;;;;;;;8.85;4.30;;;8.60;99.90;;;;;;5025626;28;20029;-74
2021/04/27 22:02:59;;;;;;;10.73;4.57;;;7.30;99.90;;;;;;5015062;28;20146;-73
2021/04/27 22:05:25;;;;;;;6.95;4.43;;;7.30;99.90;;;;;;5030196;28;20120;-72
2021/04/27 22:07:53;;;;;;;7.70;4.55;;;7.30;99.90;;;;;;5030599;28;20021;-73
2021/04/27 22:10:20;;;;;;;9.85;5.18;;;8.00;99.90;;;;;;5009478;28;20034;-72
2021/04/27 22:12:46;;;;;;;6.45;4.65;;;7.00;99.90;;;;;;5028068;28;20025;-74
2021/04/27 22:15:13;;;;;;;11.38;5.07;;;6.90;99.90;;;;;;5031344;28;20056;-72
2021/04/27 22:17:41;;;;;;;9.07;4.75;;;7.00;99.90;;;;;;5031679;28;20061;-72
2021/04/27 22:20:07;;;;;;;8.70;4.57;;;7.00;99.90;;;;;;5030630;28;20109;-72
2021/04/27 22:22:33;;;;;;;9.95;4.68;;;6.60;99.90;;;;;;5031250;28;20017;-71
2021/04/27 22:24:59;;;;;;;14.25;5.63;;;6.80;99.90;;;;;;5030499;28;20037;-72
2021/04/27 22:27:25;;;;;;;7.60;5.50;;;6.80;99.90;;;;;;5031368;28;20090;-72
2021/04/27 22:29:50;;;;;;;9.90;4.93;;;6.60;99.90;;;;;;5030583;28;20043;-72
2021/04/27 22:32:16;;;;;;;8.32;5.00;;;6.80;99.90;;;;;;5015074;28;20026;-73
2021/04/27 22:34:41;;;;;;;8.95;4.90;;;7.40;99.90;;;;;;5011258;28;20109;-72
2021/04/27 22:37:07;;;;;;;9.02;5.32;;;6.50;99.90;;;;;;5029947;28;20116;-72
2021/04/27 22:39:33;;;;;;;9.18;5.63;;;6.60;99.90;;;;;;5029059;28;20084;-72
2021/04/27 22:41:59;;;;;;;12.98;5.40;;;7.20;99.90;;;;;;5031361;28;20034;-73
2021/04/27 22:44:24;;;;;;;10.77;4.85;;;7.40;99.90;;;;;;5030967;28;20036;-72
2021/04/27 22:46:50;;;;;;;9.57;5.65;;;7.50;99.90;;;;;;5031254;28;20105;-72
2021/04/27 22:49:16;;;;;;;12.75;4.93;;;6.50;99.90;;;;;;5025705;28;20022;-73
2021/04/27 22:51:43;;;;;;;10.02;5.68;;;6.30;99.90;;;;;;5011863;28;20508;-72
2021/04/27 22:54:10;;;;;;;7.20;4.88;;;6.40;99.90;;;;;;5029923;28;20397;-73
2021/04/27 22:56:36;;;;;;;10.50;4.85;;;6.30;99.90;;;;;;5030958;28;20034;-73
2021/04/27 22:59:01;;;;;;;7.53;5.22;;;6.20;99.90;;;;;;5030233;28;20044;-73
2021/04/27 23:01:27;;;;;;;7.40;4.80;;;6.20;99.90;;;;;;5030659;28;20061;-72
2021/04/27 23:03:53;;;;;;;7.45;4.63;;;7.10;99.90;;;;;;5030683;28;20026;-73
2021/04/27 23:06:18;;;;;;;11.68;5.25;;;7.40;99.90;;;;;;5031164;28;20037;-73
2021/04/27 23:08:44;;;;;;;11.90;4.82;;;;;;;;;;5030913;28;20029;-73
2021/04/27 23:11:10;;;;;;;11.60;5.32;;;6.10;99.90;;;;;;5028216;28;20046;-73
2021/04/27 23:13:35;;;;;;;8.20;4.20;;;7.50;99.90;;;;;;5030689;28;20542;-73
